Time;durP1;ratioP1;P1;durP2;ratioP2;P2;SDS_P1;SDS_P2;PMS_P1;PMS_P2;Temp;Humidity;BMP_temperature;BMP_pressure;BME280_temperature;BME280_humidity;BME280_pressure;Samples;Min_cycle;Max_cycle;Signal;HPM_P1;HPM_P2
2023/08/17 00:02:11;;;;;;;27.97;15.97;;;;;;;17.89;100.00;100301.84;5033418;28;20229;-61
2023/08/17 00:04:37;;;;;;;24.73;16.10;;;;;;;17.94;100.00;100313.66;5020642;28;20174;-61
2023/08/17 00:07:02;;;;;;;26.83;17.10;;;;;;;18.00;100.00;100315.78;5031953;28;20572;-61
2023/08/17 00:09:27;;;;;;;27.77;17.37;;;;;;;18.05;100.00;100324.88;5031871;28;20178;-62
2023/08/17 00:11:53;;;;;;;29.63;17.30;;;;;;;18.10;100.00;100327.09;5020224;28;20234;-62
2023/08/17 00:14:18;;;;;;;27.30;16.87;;;;;;;18.16;100.00;100323.97;5012904;28;20187;-62
2023/08/17 00:16:43;;;;;;;17.70;12.37;;;;;;;18.12;100.00;100324.34;5011612;28;20550;-62
2023/08/17 00:19:09;;;;;;;20.90;14.80;;;;;;;18.20;100.00;100314.13;5012367;28;20206;-62
2023/08/17 00:21:34;;;;;;;18.23;13.57;;;;;;;18.27;100.00;100312.69;5026160;28;20248;-61
2023/08/17 00:23:59;;;;;;;16.07;12.70;;;;;;;18.20;100.00;100317.56;5035290;28;20186;-64
2023/08/17 00:26:25;;;;;;;17.67;15.53;;;;;;;18.09;100.00;100316.81;5031385;28;20553;-62
2023/08/17 00:28:50;;;;;;;22.37;17.50;;;;;;;17.94;100.00;100309.31;5031717;28;20212;-62
2023/08/17 00:31:15;;;;;;;19.63;16.37;;;;;;;17.94;100.00;100304.09;5020484;28;20222;-61
2023/08/17 00:33:41;;;;;;;18.83;16.00;;;;;;;18.00;100.00;100310.59;5017852;28;20191;-61
2023/08/17 00:36:06;;;;;;;20.90;17.40;;;;;;;17.86;100.00;100302.09;5010760;28;20190;-61
2023/08/17 00:38:31;;;;;;;22.67;19.73;;;;;;;17.94;100.00;100306.72;5011940;28;20245;-61
2023/08/17 00:40:56;;;;;;;21.10;18.90;;;;;;;17.99;100.00;100304.53;5008752;28;20226;-61
2023/08/17 00:43:23;;;;;;;26.90;21.17;;;;;;;18.10;100.00;100303.66;5020043;28;20608;-62
2023/08/17 00:45:48;;;;;;;27.27;20.57;;;;;;;18.12;100.00;100311.34;5011298;28;20194;-62
2023/08/17 00:48:14;;;;;;;27.57;22.17;;;;;;;18.16;100.00;100307.50;5007056;28;20190;-62
2023/08/17 00:50:40;;;;;;;24.67;21.90;;;;;;;18.08;100.00;100309.94;5000047;28;20229;-61
2023/08/17 00:53:06;;;;;;;22.07;18.93;;;;;;;18.02;100.00;100306.91;5022171;28;20694;-61
2023/08/17 00:55:32;;;;;;;26.20;22.80;;;;;;;18.01;100.00;100305.25;5011187;28;20182;-62
2023/08/17 00:57:58;;;;;;;28.53;25.50;;;;;;;18.13;100.00;100299.97;4999073;28;20291;-60
2023/08/17 01:00:24;;;;;;;28.90;25.63;;;;;;;18.15;100.00;100298.91;5006674;28;20290;-61
2023/08/17 01:02:52;;;;;;;33.00;27.13;;;;;;;18.27;100.00;100301.41;5044141;28;20261;-60
2023/08/17 01:05:17;;;;;;;34.43;27.17;;;;;;;18.35;100.00;100293.78;5030722;28;20228;-61
2023/08/17 01:07:42;;;;;;;30.90;26.33;;;;;;;18.31;100.00;100301.03;5031262;28;20178;-61
2023/08/17 01:10:08;;;;;;;31.10;25.57;;;;;;;18.27;100.00;100291.84;5021652;28;20200;-62
2023/08/17 01:12:42;;;;;;;37.10;26.90;;;;;;;18.25;100.00;100291.13;5032983;28;20201;-61
2023/08/17 01:15:30;;;;;;;23.50;21.27;;;;;;;18.26;100.00;100291.94;5030602;28;20256;-61
2023/08/17 01:18:03;;;;;;;24.23;21.63;;;;;;;18.28;100.00;100290.88;5025015;28;20237;-61
2023/08/17 01:20:29;;;;;;;26.20;22.87;;;;;;;18.27;100.00;100283.19;5024200;28;20236;-61
2023/08/17 01:22:58;;;;;;;24.83;22.40;;;;;;;18.11;100.00;100281.03;5043203;28;20233;-61
2023/08/17 01:25:24;;;;;;;24.27;21.87;;;;;;;18.08;100.00;100273.50;5030433;28;20186;-61
2023/08/17 01:27:49;;;;;;;28.27;25.27;;;;;;;18.17;100.00;100267.50;5031209;28;20189;-61
2023/08/17 01:30:17;;;;;;;26.23;23.27;;;;;;;18.22;100.00;100271.41;5020407;28;20239;-62
2023/08/17 01:33:01;;;;;;;23.53;21.30;;;;;;;18.24;100.00;100276.47;5030084;28;20201;-61
2023/08/17 01:35:58;;;;;;;26.60;23.80;;;;;;;18.20;100.00;100269.88;5019328;28;20550;-61
2023/08/17 01:38:25;;;;;;;28.77;24.97;;;;;;;18.32;100.00;100270.59;5026253;28;20682;-61
2023/08/17 01:40:53;;;;;;;27.67;24.40;;;;;;;18.26;100.00;100278.94;5027297;28;20748;-62
2023/08/17 01:43:19;;;;;;;31.17;25.63;;;;;;;18.23;100.00;100273.06;5029578;28;20599;-62
2023/08/17 01:45:45;;;;;;;32.00;27.07;;;;;;;18.22;100.00;100268.78;5030349;28;20265;-62
2023/08/17 01:48:11;;;;;;;40.40;27.63;;;;;;;18.16;100.00;100271.06;5033451;28;20273;-60
2023/08/17 01:50:36;;;;;;;38.63;28.20;;;;;;;18.22;100.00;100273.16;5028627;28;20228;-63
2023/08/17 01:53:02;;;;;;;35.20;26.37;;;;;;;18.17;100.00;100273.56;5045555;28;20206;-61
2023/08/17 01:55:27;;;;;;;38.83;26.87;;;;;;;18.18;100.00;100276.97;5033938;28;20653;-61
2023/08/17 01:57:53;;;;;;;43.23;27.30;;;;;;;18.28;100.00;100261.41;5033910;28;20210;-62
2023/08/17 02:00:18;;;;;;;32.43;24.73;;;;;;;18.28;100.00;100261.41;5026364;28;20739;-62
2023/08/17 02:02:44;;;;;;;30.80;23.67;;;;;;;18.36;100.00;100264.19;5047458;28;20818;-62
2023/08/17 02:05:09;;;;;;;35.93;24.50;;;;;;;18.35;100.00;100262.56;5033979;28;20627;-62
2023/08/17 02:07:34;;;;;;;29.13;23.30;;;;;;;18.40;100.00;100265.59;5034228;28;20270;-61
2023/08/17 02:09:59;;;;;;;25.20;21.17;;;;;;;18.29;100.00;100266.47;5034079;28;20190;-63
2023/08/17 02:12:25;;;;;;;33.13;24.63;;;;;;;18.32;100.00;100261.03;5039493;28;20237;-62
2023/08/17 02:14:50;;;;;;;27.20;21.27;;;;;;;18.46;100.00;100267.66;5033719;28;20182;-61
2023/08/17 02:17:16;;;;;;;25.53;22.23;;;;;;;18.58;100.00;100263.19;5033770;28;20591;-62
2023/08/17 02:19:42;;;;;;;30.27;22.47;;;;;;;18.62;100.00;100258.53;5033676;28;20608;-63
2023/08/17 02:22:07;;;;;;;30.97;22.90;;;;;;;18.62;100.00;100255.91;5039276;28;20557;-62
2023/08/17 02:24:32;;;;;;;31.53;23.87;;;;;;;18.62;100.00;100256.75;5033351;28;20251;-61
2023/08/17 02:26:58;;;;;;;34.40;24.87;;;;;;;18.62;100.00;100248.94;5033961;28;20182;-61
2023/08/17 02:29:23;;;;;;;27.83;22.37;;;;;;;18.53;100.00;100247.13;5033920;28;20186;-62
2023/08/17 02:31:48;;;;;;;29.13;22.47;;;;;;;18.46;100.00;100246.81;5037315;28;20268;-62
2023/08/17 02:34:14;;;;;;;36.80;24.07;;;;;;;18.59;100.00;100243.97;5034939;28;20197;-62
2023/08/17 02:36:39;;;;;;;32.77;22.83;;;;;;;18.58;100.00;100241.50;5033717;28;20182;-61
2023/08/17 02:39:05;;;;;;;31.27;23.93;;;;;;;18.64;100.00;100238.38;5033479;28;20233;-63
2023/08/17 02:41:31;;;;;;;34.13;24.93;;;;;;;18.55;100.00;100235.59;5034756;28;20225;-62
2023/08/17 02:43:57;;;;;;;34.87;24.77;;;;;;;18.61;100.00;100230.84;5037243;28;20193;-62
2023/08/17 02:46:22;;;;;;;45.57;25.80;;;;;;;18.57;100.00;100235.50;5033339;28;20186;-62
2023/08/17 02:48:47;;;;;;;37.07;25.50;;;;;;;18.59;100.00;100237.97;5033400;28;20547;-62
2023/08/17 02:51:13;;;;;;;40.37;28.63;;;;;;;18.59;100.00;100233.56;5032330;28;20225;-61
2023/08/17 02:53:38;;;;;;;40.87;27.40;;;;;;;18.61;100.00;100234.25;5039551;28;20710;-63
2023/08/17 02:56:04;;;;;;;39.97;27.97;;;;;;;18.55;100.00;100233.00;5032644;28;20174;-62
2023/08/17 02:58:29;;;;;;;40.03;28.47;;;;;;;18.51;100.00;100228.22;5032656;28;20214;-61
2023/08/17 03:00:54;;;;;;;44.03;29.90;;;;;;;18.43;100.00;100225.44;5029644;28;20225;-61
2023/08/17 03:03:20;;;;;;;44.90;29.10;;;;;;;18.37;100.00;100234.59;5041928;28;20189;-63
2023/08/17 03:05:45;;;;;;;47.30;30.37;;;;;;;18.31;100.00;100224.72;5032517;28;20190;-63
2023/08/17 03:08:10;;;;;;;46.20;29.63;;;;;;;18.25;100.00;100225.25;5033115;28;20264;-62
2023/08/17 03:10:37;;;;;;;38.70;28.70;;;;;;;18.10;100.00;100233.38;5024752;28;20232;-62
2023/08/17 03:13:02;;;;;;;49.23;31.60;;;;;;;18.08;100.00;100229.25;5043936;28;20636;-62
2023/08/17 03:15:28;;;;;;;41.57;29.37;;;;;;;17.95;100.00;100225.09;5032462;28;20272;-61
2023/08/17 03:17:53;;;;;;;41.50;29.73;;;;;;;17.91;100.00;100232.28;5032768;28;20277;-61
2023/08/17 03:20:18;;;;;;;45.77;30.50;;;;;;;17.96;100.00;100220.69;5023446;28;20660;-62
2023/08/17 03:22:43;;;;;;;52.30;31.53;;;;;;;17.88;100.00;100219.53;5046260;28;20188;-63
2023/08/17 03:25:09;;;;;;;52.33;32.17;;;;;;;17.84;100.00;100223.34;5032092;28;20185;-63
2023/08/17 03:27:34;;;;;;;52.73;30.67;;;;;;;17.80;100.00;100224.56;5032916;28;20617;-62
2023/08/17 03:29:59;;;;;;;49.47;32.10;;;;;;;17.77;100.00;100213.56;5032658;28;20178;-62
2023/08/17 03:32:25;;;;;;;58.87;33.17;;;;;;;17.70;100.00;100216.69;4998439;28;20218;-61
2023/08/17 03:34:50;;;;;;;49.43;31.43;;;;;;;17.67;100.00;100211.72;5012549;28;20178;-63
2023/08/17 03:37:15;;;;;;;62.53;34.53;;;;;;;17.70;100.00;100218.44;5013006;28;20312;-61
2023/08/17 03:39:40;;;;;;;64.97;36.10;;;;;;;17.71;100.00;100214.91;5012520;28;20182;-62
2023/08/17 03:42:06;;;;;;;63.33;33.30;;;;;;;17.70;100.00;100224.50;5034904;28;20614;-62
2023/08/17 03:44:31;;;;;;;77.17;35.87;;;;;;;17.71;100.00;100220.09;5031997;28;20174;-62
2023/08/17 03:46:56;;;;;;;73.13;34.67;;;;;;;17.68;100.00;100226.38;5032402;28;20182;-62
2023/08/17 03:49:22;;;;;;;61.30;33.73;;;;;;;17.64;100.00;100222.41;5032206;28;20185;-62
2023/08/17 03:51:47;;;;;;;74.13;35.17;;;;;;;17.67;100.00;100222.13;5020994;28;20300;-61
2023/08/17 03:54:13;;;;;;;66.20;33.60;;;;;;;17.61;100.00;100219.22;5013744;28;20206;-61
2023/08/17 03:56:38;;;;;;;66.83;33.40;;;;;;;17.62;100.00;100218.28;5012608;28;20179;-62
2023/08/17 03:59:03;;;;;;;68.83;34.27;;;;;;;17.59;100.00;100214.16;5012330;28;20329;-61
2023/08/17 04:01:29;;;;;;;59.63;31.20;;;;;;;17.48;100.00;100225.44;5004783;28;20265;-63
2023/08/17 04:03:54;;;;;;;62.30;31.80;;;;;;;17.38;100.00;100227.94;4999797;28;20183;-62
2023/08/17 04:06:20;;;;;;;56.73;30.97;;;;;;;17.34;100.00;100234.38;5012207;28;20211;-62
2023/08/17 04:08:45;;;;;;;43.17;24.13;;;;;;;17.29;100.00;100231.31;5012469;28;20182;-62
2023/08/17 04:11:11;;;;;;;36.13;22.43;;;;;;;17.24;100.00;100230.84;5001559;28;20670;-62
2023/08/17 04:13:36;;;;;;;38.50;22.03;;;;;;;17.25;100.00;100235.94;5001718;28;20211;-62
2023/08/17 04:16:02;;;;;;;30.73;18.97;;;;;;;17.24;100.00;100242.06;5010287;28;20270;-61
2023/08/17 04:18:27;;;;;;;25.73;17.57;;;;;;;17.26;100.00;100247.13;5011695;28;20226;-62
2023/08/17 04:20:52;;;;;;;20.07;16.13;;;;;;;17.24;100.00;100246.44;5008873;28;20676;-61
2023/08/17 04:23:17;;;;;;;22.87;16.60;;;;;;;17.25;100.00;100243.72;5007920;28;20206;-61
2023/08/17 04:25:43;;;;;;;21.23;15.20;;;;;;;17.20;100.00;100247.63;5011601;28;20194;-61
2023/08/17 04:28:09;;;;;;;22.33;15.37;;;;;;;17.23;100.00;100252.59;5010535;28;20191;-61
2023/08/17 04:30:34;;;;;;;17.03;13.67;;;;;;;17.23;100.00;100261.22;5006398;28;20222;-61
2023/08/17 04:32:59;;;;;;;15.57;11.17;;;;;;;17.17;100.00;100256.50;5022103;28;20193;-61
2023/08/17 04:35:24;;;;;;;15.60;11.03;;;;;;;17.25;100.00;100266.28;5011505;28;20557;-62
2023/08/17 04:37:50;;;;;;;22.13;15.67;;;;;;;17.15;100.00;100268.78;5011554;28;20202;-62
2023/08/17 04:40:15;;;;;;;40.87;22.00;;;;;;;17.21;100.00;100272.69;5003881;28;20538;-62
2023/08/17 04:42:41;;;;;;;45.43;23.93;;;;;;;17.13;100.00;100278.50;5016531;28;20182;-61
2023/08/17 04:45:06;;;;;;;41.93;24.20;;;;;;;17.18;100.00;100271.16;5007435;28;20178;-61
2023/08/17 04:47:32;;;;;;;40.57;22.00;;;;;;;17.33;100.00;100284.69;5003214;28;20270;-62
2023/08/17 04:49:57;;;;;;;32.10;19.73;;;;;;;17.23;100.00;100284.59;5008557;28;20325;-61
2023/08/17 04:52:22;;;;;;;38.93;21.27;;;;;;;17.43;100.00;100290.00;5017156;28;20222;-62
2023/08/17 04:54:47;;;;;;;28.20;17.30;;;;;;;17.48;100.00;100281.81;5011428;28;20490;-62
2023/08/17 04:57:13;;;;;;;25.93;15.67;;;;;;;17.45;100.00;100285.47;5011562;28;20202;-63
2023/08/17 04:59:38;;;;;;;20.47;14.27;;;;;;;17.48;100.00;100282.63;5011511;28;20278;-63
2023/08/17 05:02:03;;;;;;;21.07;14.20;;;;;;;17.51;100.00;100278.97;5016468;28;20233;-62
2023/08/17 05:04:30;;;;;;;22.77;14.87;;;;;;;17.46;100.00;100281.13;4998871;28;20183;-62
2023/08/17 05:06:55;;;;;;;17.90;12.53;;;;;;;17.37;100.00;100280.91;5011633;28;20187;-62
2023/08/17 05:09:21;;;;;;;14.13;10.07;;;;;;;17.29;100.00;100290.25;5011772;28;20187;-62
2023/08/17 05:11:46;;;;;;;21.27;11.77;;;;;;;17.52;100.00;100283.22;5014280;28;20351;-62
2023/08/17 05:14:11;;;;;;;14.87;10.63;;;;;;;17.58;100.00;100287.94;5013100;28;20195;-62
2023/08/17 05:16:37;;;;;;;10.73;9.03;;;;;;;17.61;100.00;100286.84;5011320;28;20223;-63
2023/08/17 05:19:02;;;;;;;11.87;9.53;;;;;;;17.63;100.00;100285.78;5011657;28;20218;-63
2023/08/17 05:21:27;;;;;;;12.00;7.60;;;;;;;17.64;100.00;100279.63;5019611;28;20233;-63
2023/08/17 05:23:53;;;;;;;8.37;7.43;;;;;;;17.65;100.00;100285.63;5019554;28;20245;-63
2023/08/17 05:26:18;;;;;;;8.27;6.43;;;;;;;17.50;100.00;100279.91;5014760;28;20197;-64
2023/08/17 05:28:44;;;;;;;7.03;5.77;;;;;;;17.75;100.00;100273.56;5015398;28;20190;-64
2023/08/17 05:31:10;;;;;;;6.77;5.47;;;;;;;17.86;100.00;100272.63;5013704;28;20252;-63
2023/08/17 05:33:35;;;;;;;8.40;5.13;;;;;;;17.92;100.00;100269.53;5021646;28;20206;-63
2023/08/17 05:36:01;;;;;;;6.63;5.50;;;;;;;17.96;100.00;100280.53;5012792;28;20183;-64
2023/08/17 05:38:26;;;;;;;6.87;5.20;;;;;;;18.10;100.00;100285.44;5015224;28;20270;-64
2023/08/17 05:40:58;;;;;;;6.03;5.13;;;;;;;18.09;100.00;100283.78;5011569;28;20705;-64
2023/08/17 05:43:23;;;;;;;5.63;4.70;;;;;;;18.13;100.00;100285.16;5011107;28;20178;-63
2023/08/17 05:45:49;;;;;;;10.10;4.60;;;;;;;18.18;100.00;100292.59;5013956;28;20236;-64
2023/08/17 05:48:14;;;;;;;4.83;4.43;;;;;;;18.23;100.00;100291.28;5014423;28;21336;-63
2023/08/17 05:50:42;;;;;;;5.07;4.57;;;;;;;18.24;100.00;100292.09;5008777;28;20226;-64
2023/08/17 05:53:08;;;;;;;5.27;4.57;;;;;;;18.32;100.00;100294.03;5025157;28;20256;-64
2023/08/17 05:55:33;;;;;;;5.57;4.90;;;;;;;18.43;100.00;100283.56;5013987;28;20194;-64
2023/08/17 05:57:58;;;;;;;5.37;4.87;;;;;;;18.37;100.00;100284.91;5014446;28;20195;-64
2023/08/17 06:00:24;;;;;;;4.57;4.13;;;;;;;18.51;100.00;100280.31;5005617;28;20314;-65
2023/08/17 06:02:49;;;;;;;4.17;3.77;;;;;;;18.57;100.00;100284.16;5026873;28;20182;-65
2023/08/17 06:05:15;;;;;;;4.13;3.73;;;;;;;18.64;100.00;100287.88;5013967;28;20198;-66
2023/08/17 06:07:40;;;;;;;3.77;3.47;;;;;;;18.78;100.00;100286.69;5014419;28;20186;-64
2023/08/17 06:10:06;;;;;;;4.33;4.00;;;;;;;18.90;100.00;100290.84;5019252;28;20195;-64
2023/08/17 06:12:31;;;;;;;5.10;4.70;;;;;;;19.00;100.00;100277.88;5009715;28;20183;-65
2023/08/17 06:14:57;;;;;;;4.50;4.10;;;;;;;19.10;100.00;100283.94;5007545;28;20189;-65
2023/08/17 06:17:22;;;;;;;5.07;4.47;;;;;;;19.23;100.00;100286.28;5014302;28;20234;-65
2023/08/17 06:19:47;;;;;;;4.00;3.70;;;;;;;19.26;100.00;100285.19;5012819;28;20202;-66
2023/08/17 06:22:13;;;;;;;5.00;4.17;;;;;;;19.51;100.00;100287.25;5013719;28;20221;-66
2023/08/17 06:24:38;;;;;;;4.23;3.83;;;;;;;19.68;100.00;100288.38;5007762;28;20190;-67
2023/08/17 06:27:03;;;;;;;6.93;3.60;;;;;;;19.58;100.00;100286.72;5014153;28;20781;-66
2023/08/17 06:29:28;;;;;;;5.93;3.73;;;;;;;19.55;100.00;100290.44;5013972;28;20183;-67
2023/08/17 06:31:54;;;;;;;4.60;3.60;;;;;;;19.77;100.00;100293.69;5012668;28;20233;-66
2023/08/17 06:34:20;;;;;;;4.60;3.37;;;;;;;20.12;100.00;100293.13;5005083;28;20217;-67
2023/08/17 06:36:57;;;;;;;4.33;2.97;;;;;;;20.38;100.00;100302.13;5012746;28;20222;-66
2023/08/17 06:39:22;;;;;;;4.33;3.23;;;;;;;20.24;100.00;100285.13;5014064;28;20186;-67
2023/08/17 06:41:47;;;;;;;4.60;2.40;;;;;;;20.61;100.00;100281.69;5014645;28;20627;-66
2023/08/17 06:44:13;;;;;;;2.80;2.50;;;;;;;21.15;100.00;100283.59;5011889;28;20205;-70
2023/08/17 06:46:38;;;;;;;8.47;2.73;;;;;;;21.45;100.00;100277.19;5026926;28;20179;-71
2023/08/17 06:49:03;;;;;;;3.57;2.23;;;;;;;21.67;100.00;100282.94;5029415;28;20191;-71
2023/08/17 06:51:28;;;;;;;3.20;2.33;;;;;;;22.66;100.00;100281.78;5014421;28;20227;-70
2023/08/17 06:53:54;;;;;;;3.07;1.90;;;;;;;23.96;100.00;100280.47;5018549;28;20588;-72
2023/08/17 06:56:19;;;;;;;3.70;2.35;;;;;;;25.49;100.00;100278.47;5013289;28;20175;-72
2023/08/17 06:58:45;;;;;;;2.25;1.75;;;;;;;26.42;100.00;100274.59;5012916;28;20203;-71
2023/08/17 07:01:10;;;;;;;4.15;1.70;;;;;;;26.70;100.00;100279.16;5006291;28;20700;-72
2023/08/17 07:03:35;;;;;;;7.13;3.17;;;;;;;26.09;100.00;100285.50;5020038;28;20269;-72
2023/08/17 07:06:00;;;;;;;3.38;1.70;;;;;;;26.11;100.00;100287.97;5028916;28;20186;-73
2023/08/17 07:08:26;;;;;;;1.88;1.50;;;;;;;26.42;100.00;100285.13;5013477;28;20240;-72
2023/08/17 07:10:51;;;;;;;5.05;1.33;;;;;;;27.39;100.00;100284.97;5006766;28;20237;-72
2023/08/17 07:13:16;;;;;;;4.88;1.70;;;;;;;25.76;100.00;100283.16;5005568;28;20178;-70
2023/08/17 07:15:41;;;;;;;2.95;1.15;;;;;;;25.99;100.00;100282.28;5012864;28;20186;-71
2023/08/17 07:18:07;;;;;;;2.95;1.20;;;;;;;26.71;100.00;100287.91;5012319;28;20226;-72
2023/08/17 07:20:32;;;;;;;3.28;1.35;;;;;;;26.86;100.00;100274.72;5015816;28;20249;-71
2023/08/17 07:22:57;;;;;;;5.82;1.40;;;;;;;28.09;100.00;100290.41;5027052;28;20194;-71
2023/08/17 07:25:23;;;;;;;4.30;1.33;;;;;;;28.85;100.00;100287.91;5007998;28;20179;-72
2023/08/17 07:27:50;;;;;;;1.30;1.00;;;;;;;29.26;95.57;100287.78;5030148;28;20179;-70
2023/08/17 07:30:15;;;;;;;3.28;1.00;;;;;;;29.84;96.73;100286.34;4989509;28;20184;-69
2023/08/17 07:32:40;;;;;;;2.13;1.35;;;;;;;29.21;92.57;100287.56;5002575;28;20662;-68
2023/08/17 07:35:06;;;;;;;5.05;1.50;;;;;;;27.52;100.00;100282.47;5008523;28;20191;-68
2023/08/17 07:37:34;;;;;;;2.92;1.33;;;;;;;26.44;100.00;100281.50;5011001;28;20286;-69
2023/08/17 07:40:00;;;;;;;2.45;1.50;;;;;;;26.37;100.00;100289.31;5006584;28;20182;-70
2023/08/17 07:42:25;;;;;;;5.15;1.80;;;;;;;25.90;100.00;100289.44;4998919;28;20762;-69
2023/08/17 07:44:50;;;;;;;3.63;1.52;;;;;;;25.61;100.00;100287.56;5014392;28;20243;-70
2023/08/17 07:47:15;;;;;;;3.85;1.67;;;;;;;25.80;100.00;100285.44;5014387;28;20183;-71
2023/08/17 07:49:41;;;;;;;2.08;1.58;;;;;;;26.34;100.00;100287.06;5010646;28;20215;-69
2023/08/17 07:52:06;;;;;;;2.35;1.75;;;;;;;27.09;100.00;100282.47;5012569;28;20225;-69
2023/08/17 07:54:32;;;;;;;2.67;1.50;;;;;;;26.89;100.00;100282.22;5030159;28;20292;-69
2023/08/17 07:56:57;;;;;;;2.35;1.50;;;;;;;26.58;100.00;100291.19;5031378;28;20189;-71
2023/08/17 07:59:22;;;;;;;2.90;1.60;;;;;;;25.90;100.00;100291.25;5047231;28;20208;-72
2023/08/17 08:01:48;;;;;;;3.28;2.03;;;;;;;25.99;100.00;100290.19;5005138;28;20234;-69
2023/08/17 08:04:13;;;;;;;2.05;1.60;;;;;;;25.16;100.00;100286.59;5013589;28;20190;-68
2023/08/17 08:06:38;;;;;;;4.97;1.60;;;;;;;24.95;100.00;100282.75;5010885;28;20321;-70
2023/08/17 08:09:04;;;;;;;2.35;1.70;;;;;;;24.55;100.00;100288.03;5012530;28;20194;-69
2023/08/17 08:11:30;;;;;;;4.53;1.83;;;;;;;24.56;100.00;100286.19;5004507;28;20234;-69
2023/08/17 08:13:56;;;;;;;5.45;2.25;;;;;;;24.81;100.00;100277.25;5016758;28;20179;-69
2023/08/17 08:16:22;;;;;;;3.42;1.75;;;;;;;25.07;100.00;100280.56;5011959;28;20186;-69
2023/08/17 08:18:47;;;;;;;2.70;1.70;;;;;;;25.54;100.00;100273.47;5010265;28;20226;-69
2023/08/17 08:21:12;;;;;;;3.80;1.58;;;;;;;25.85;100.00;100277.81;5013179;28;20699;-70
2023/08/17 08:23:38;;;;;;;3.95;1.65;;;;;;;26.33;100.00;100277.50;5035058;28;20591;-70
2023/08/17 08:26:03;;;;;;;2.75;1.50;;;;;;;27.48;100.00;100272.47;5030240;28;20390;-70
2023/08/17 08:28:28;;;;;;;2.33;1.60;;;;;;;28.01;100.00;100283.41;5031291;28;20248;-69
2023/08/17 08:30:53;;;;;;;4.63;1.42;;;;;;;28.86;100.00;100289.53;5021004;28;20295;-70
2023/08/17 08:33:19;;;;;;;2.97;1.25;;;;;;;28.36;100.00;100290.56;5012861;28;20187;-68
2023/08/17 08:35:45;;;;;;;2.17;1.40;;;;;;;29.21;100.00;100292.88;5003583;28;20187;-71
2023/08/17 08:38:10;;;;;;;2.33;1.30;;;;;;;29.95;94.40;100283.09;5018633;28;20202;-71
2023/08/17 08:40:37;;;;;;;2.03;1.20;;;;;;;30.87;86.18;100287.47;4998077;28;20284;-70
2023/08/17 08:43:03;;;;;;;3.38;1.52;;;;;;;31.94;79.76;100285.00;5024631;28;20209;-69
2023/08/17 08:45:30;;;;;;;2.65;1.63;;;;;;;30.89;84.89;100280.06;5031411;28;20622;-70
2023/08/17 08:47:57;;;;;;;3.85;1.60;;;;;;;30.07;90.02;100290.44;5024849;28;20285;-70
2023/08/17 08:50:25;;;;;;;2.30;1.50;;;;;;;30.47;88.81;100284.16;5020444;28;20242;-71
2023/08/17 08:52:58;;;;;;;2.15;1.67;;;;;;;30.60;86.10;100284.09;5025100;28;20749;-72
2023/08/17 08:55:28;;;;;;;3.85;1.73;;;;;;;31.19;84.29;100273.38;5010949;28;20178;-71
2023/08/17 08:57:55;;;;;;;3.47;1.80;;;;;;;31.45;85.31;100282.97;5015354;28;20260;-69
2023/08/17 09:00:21;;;;;;;5.70;1.70;;;;;;;30.99;88.13;100276.94;5009187;28;20214;-70
2023/08/17 09:02:46;;;;;;;4.32;1.83;;;;;;;29.55;95.77;100272.50;5025453;28;20291;-70
2023/08/17 09:05:13;;;;;;;1.92;1.55;;;;;;;30.56;90.78;100275.78;5034656;28;20833;-71
2023/08/17 09:07:39;;;;;;;1.70;1.50;;;;;;;30.84;88.98;100274.59;5033353;28;20499;-67
2023/08/17 09:10:05;;;;;;;6.38;1.80;;;;;;;29.55;94.60;100269.06;5019892;28;20193;-68
2023/08/17 09:12:30;;;;;;;3.72;1.70;;;;;;;29.93;96.30;100277.19;5003042;28;20240;-69
2023/08/17 09:14:56;;;;;;;8.25;1.80;;;;;;;30.20;96.11;100271.78;5003696;28;20294;-69
2023/08/17 09:17:25;;;;;;;2.13;1.40;;;;;;;30.14;92.63;100269.19;5009575;28;20226;-70
2023/08/17 09:19:50;;;;;;;2.25;1.67;;;;;;;28.78;99.88;100280.75;5008119;28;20194;-70
2023/08/17 09:22:37;;;;;;;4.20;1.73;;;;;;;27.00;100.00;100284.41;5031440;28;20232;-70
2023/08/17 09:25:02;;;;;;;1.98;1.83;;;;;;;27.73;100.00;100277.34;5044502;28;20181;-68
2023/08/17 09:27:28;;;;;;;7.28;1.77;;;;;;;28.55;100.00;100291.63;5028636;28;20189;-69
2023/08/17 09:30:05;;;;;;;1.60;1.50;;;;;;;29.39;99.00;100276.38;5034182;28;20657;-68
2023/08/17 09:32:31;;;;;;;4.57;2.00;;;;;;;30.36;91.00;100272.38;5006867;28;20232;-69
2023/08/17 09:34:57;;;;;;;1.67;1.58;;;;;;;30.51;92.14;100272.13;5043707;28;20322;-69
2023/08/17 09:37:22;;;;;;;2.15;1.95;;;;;;;30.16;93.05;100267.13;5028386;28;20213;-69
2023/08/17 09:39:48;;;;;;;2.60;2.40;;;;;;;30.28;91.89;100262.81;5032869;28;20256;-69
2023/08/17 09:42:15;;;;;;;2.80;2.20;;;;;;;30.39;91.27;100272.75;5007270;28;20230;-69
2023/08/17 09:44:42;;;;;;;3.70;2.65;;;;;;;30.21;90.50;100270.78;5015152;28;20189;-69
2023/08/17 09:47:07;;;;;;;5.28;2.72;;;;;;;30.87;88.47;100276.00;5014045;28;20189;-70
2023/08/17 09:49:32;;;;;;;3.00;2.70;;;;;;;31.54;82.77;100278.19;5009417;28;20187;-69
2023/08/17 09:52:02;;;;;;;2.72;2.30;;;;;;;33.45;71.59;100278.09;5026330;28;20221;-70
2023/08/17 09:54:30;;;;;;;3.55;2.45;;;;;;;32.53;71.04;100273.91;5032613;28;20579;-67
2023/08/17 09:56:56;;;;;;;5.72;2.13;;;;;;;32.33;76.10;100269.66;5034699;28;20553;-69
2023/08/17 09:59:23;;;;;;;4.47;2.40;;;;;;;32.17;78.05;100263.84;5032851;28;20194;-70
2023/08/17 10:01:50;;;;;;;4.65;2.40;;;;;;;33.24;68.44;100266.91;5010781;28;20304;-71
2023/08/17 10:04:22;;;;;;;4.25;2.40;;;;;;;31.42;80.41;100262.16;5012286;28;20654;-66
2023/08/17 10:06:52;;;;;;;3.05;1.90;;;;;;;29.94;92.49;100265.56;5014459;28;20183;-73
2023/08/17 10:09:23;;;;;;;7.45;2.40;;;;;;;29.41;95.43;100257.63;5013044;28;20555;-73
2023/08/17 10:11:54;;;;;;;2.28;2.08;;;;;;;29.00;97.88;100262.09;5031591;28;20236;-74
2023/08/17 10:14:26;;;;;;;3.35;2.60;;;;;;;30.21;98.84;100264.66;5029022;28;20178;-74
2023/08/17 10:17:00;;;;;;;3.58;2.33;;;;;;;31.81;79.83;100257.50;5034504;28;20654;-75
2023/08/17 10:19:37;;;;;;;2.90;2.08;;;;;;;33.78;66.01;100258.03;5033422;28;20181;-76
2023/08/17 10:22:12;;;;;;;2.85;2.35;;;;;;;32.92;74.34;100255.75;5010676;28;20225;-73
2023/08/17 10:24:39;;;;;;;3.20;2.10;;;;;;;33.34;70.64;100254.91;5007456;28;20568;-74
2023/08/17 10:27:06;;;;;;;4.47;2.45;;;;;;;32.63;79.07;100266.19;5014152;28;20194;-68
2023/08/17 10:29:32;;;;;;;4.15;2.20;;;;;;;33.55;61.84;100266.88;5012792;28;20182;-67
2023/08/17 10:32:00;;;;;;;6.47;1.85;;;;;;;33.13;71.92;100257.91;5031102;28;20284;-67
2023/08/17 10:34:26;;;;;;;6.88;2.35;;;;;;;32.29;77.44;100261.31;5033806;28;20614;-68
2023/08/17 10:36:52;;;;;;;2.58;2.17;;;;;;;32.08;81.37;100262.53;5033578;28;20239;-67
2023/08/17 10:39:22;;;;;;;3.63;2.03;;;;;;;33.90;70.70;100264.19;5033742;28;20600;-67
2023/08/17 10:41:48;;;;;;;2.90;2.00;;;;;;;32.96;74.74;100263.06;5010848;28;20237;-67
2023/08/17 10:44:14;;;;;;;3.83;2.08;;;;;;;30.71;90.99;100267.53;5016236;28;20191;-68
2023/08/17 10:46:40;;;;;;;2.97;2.20;;;;;;;30.38;90.84;100259.72;5013600;28;20339;-66
2023/08/17 10:49:23;;;;;;;4.50;2.13;;;;;;;30.19;95.88;100262.22;5012038;28;20688;-66
2023/08/17 10:52:05;;;;;;;2.47;2.20;;;;;;;29.62;98.12;100254.78;5007977;28;20226;-65
2023/08/17 10:54:41;;;;;;;2.63;1.83;;;;;;;29.31;97.07;100250.09;5012714;28;20208;-65
2023/08/17 10:57:27;;;;;;;2.35;2.15;;;;;;;27.54;100.00;100259.31;5013294;28;20183;-65
2023/08/17 11:00:16;;;;;;;4.68;2.17;;;;;;;28.01;100.00;100261.47;5013166;28;20206;-65
2023/08/17 11:03:05;;;;;;;2.15;1.98;;;;;;;28.26;100.00;100256.53;5001673;28;20301;-65
2023/08/17 11:05:53;;;;;;;4.93;2.67;;;;;;;27.98;100.00;100254.75;5012576;28;20585;-65
2023/08/17 11:08:32;;;;;;;4.35;2.53;;;;;;;28.20;100.00;100251.22;5014066;28;20195;-64
2023/08/17 11:10:58;;;;;;;3.15;2.20;;;;;;;28.08;100.00;100246.47;5017401;28;20232;-65